Lavumisa Airport


Codes: FDGL/
Name: Lavumisa Airport
City: Lavumisa
Country: Swaziland
Elevation: 563 ft.

Photos at Lavumisa Airport


   Photos courtesy of SpottingLog. You can add your own sightings and photos by signing up for a free trial today.



No photos found.

Weather at Lavumisa Airport


Time (UTC)DescriptionTempratureWindCloud coverageVisibilityPressureHumidity
21-Jun-2024 12:00Few Clouds26°C7 mph, NE23%10000m1024hPa43%
21-Jun-2024 15:00Scattered Clouds25°C7 mph, NE27%10000m1024hPa50%
21-Jun-2024 18:00Few Clouds20°C2 mph, NE22%10000m1025hPa77%
21-Jun-2024 21:00Few Clouds16°C4 mph, NW19%10000m1025hPa96%
22-Jun-2024 00:00Few Clouds16°C4 mph, NW22%10000m1024hPa96%
22-Jun-2024 03:00Clear Sky14°C4 mph, NW4%10000m1024hPa95%
22-Jun-2024 06:00Clear Sky16°C4 mph, NW3%10000m1025hPa75%
22-Jun-2024 09:00Clear Sky25°C2 mph, NW0%10000m1024hPa29%
22-Jun-2024 12:00Clear Sky28°C7 mph, SE0%10000m1023hPa23%
22-Jun-2024 15:00Clear Sky21°C13 mph, S0%10000m1027hPa67%
22-Jun-2024 18:00Few Clouds19°C11 mph, S16%10000m1030hPa74%
22-Jun-2024 21:00Broken Clouds18°C7 mph, S54%10000m1031hPa78%
23-Jun-2024 00:00Light Rain17°C7 mph, S66%10000m1031hPa83%
23-Jun-2024 03:00Light Rain16°C4 mph, SW48%10000m1031hPa93%
23-Jun-2024 06:00Few Clouds17°C4 mph, SW24%10000m1032hPa83%
23-Jun-2024 09:00Clear Sky23°C4 mph, SE5%10000m1031hPa52%
23-Jun-2024 12:00Few Clouds24°C7 mph, E14%10000m1028hPa45%
23-Jun-2024 15:00Clear Sky20°C4 mph, E7%10000m1029hPa63%
23-Jun-2024 18:00Clear Sky16°C0 mph, SE4%10000m1031hPa80%
23-Jun-2024 21:00Clear Sky15°C2 mph, W0%10000m1031hPa86%
24-Jun-2024 00:00Clear Sky15°C2 mph, W0%10000m1030hPa89%
24-Jun-2024 03:00Clear Sky14°C2 mph, W0%10000m1030hPa91%
24-Jun-2024 06:00Clear Sky17°C2 mph, W0%10000m1031hPa77%
24-Jun-2024 09:00Clear Sky24°C4 mph, N0%10000m1029hPa50%
24-Jun-2024 12:00Clear Sky26°C7 mph, NE0%10000m1026hPa39%
24-Jun-2024 15:00Clear Sky22°C4 mph, NE2%10000m1027hPa58%
24-Jun-2024 18:00Clear Sky18°C2 mph, NE1%10000m1028hPa86%
24-Jun-2024 21:00Clear Sky16°C2 mph, NW0%10000m1028hPa95%
25-Jun-2024 00:00Clear Sky16°C4 mph, NW0%10000m1028hPa96%
25-Jun-2024 03:00Clear Sky15°C2 mph, NW0%10000m1028hPa95%
25-Jun-2024 06:00Clear Sky17°C2 mph, W0%10000m1029hPa83%
25-Jun-2024 09:00Clear Sky24°C4 mph, S0%10000m1029hPa54%
25-Jun-2024 12:00Scattered Clouds24°C11 mph, SE30%10000m1028hPa53%
25-Jun-2024 15:00Overcast Clouds21°C7 mph, S89%10000m1029hPa67%
25-Jun-2024 18:00Scattered Clouds18°C7 mph, S48%10000m1031hPa84%
25-Jun-2024 21:00Scattered Clouds18°C9 mph, S49%10000m1031hPa80%
26-Jun-2024 00:00Broken Clouds18°C7 mph, S61%10000m1031hPa81%
26-Jun-2024 03:00Scattered Clouds16°C4 mph, SW34%10000m1031hPa93%
26-Jun-2024 06:00Few Clouds18°C4 mph, S21%10000m1032hPa79%
26-Jun-2024 09:00Light Rain21°C9 mph, S78%10000m1033hPa68%